Time;durP1;ratioP1;P1;durP2;ratioP2;P2;SDS_P1;SDS_P2;PMS_P1;PMS_P2;Temp;Humidity;BMP_temperature;BMP_pressure;BME280_temperature;BME280_humidity;BME280_pressure;Samples;Min_cycle;Max_cycle;Signal;HPM_P1;HPM_P2
2022/04/21 00:00:38;;;;;;;36.70;25.10;;;;;;;4.40;77.50;98285.52;220224;1277;24265;-73
2022/04/21 00:05:51;;;;;;;44.00;28.20;;;;;;;4.38;77.44;98277.81;219835;1275;472039;-72
2022/04/21 00:10:54;;;;;;;42.50;28.20;;;;;;;4.32;77.46;98273.60;220345;1274;22592;-70
2022/04/21 00:15:56;;;;;;;43.80;28.60;;;;;;;4.24;77.45;98271.55;220114;1276;22560;-72
2022/04/21 00:21:01;;;;;;;46.80;29.60;;;;;;;4.16;77.59;98264.90;220233;1275;22537;-71
2022/04/21 00:26:04;;;;;;;48.60;31.00;;;;;;;4.07;77.67;98266.90;220243;1277;22626;-72
2022/04/21 00:31:06;;;;;;;46.70;29.70;;;;;;;3.99;77.85;98266.71;220320;1274;22601;-71
2022/04/21 00:36:10;;;;;;;48.60;29.70;;;;;;;3.90;77.85;98270.54;220283;1274;22705;-72
2022/04/21 00:41:12;;;;;;;48.50;31.70;;;;;;;3.82;78.09;98272.45;220315;1274;24286;-72
2022/04/21 00:46:19;;;;;;;51.80;32.10;;;;;;;3.74;78.24;98276.54;220165;1277;22649;-71
2022/04/21 00:51:24;;;;;;;48.40;29.70;;;;;;;3.68;78.34;98275.55;220367;1275;22562;-71
2022/04/21 00:56:26;;;;;;;45.30;30.40;;;;;;;3.58;78.57;98278.51;220199;1276;22549;-72
2022/04/21 01:06:55;;;;;;;51.70;33.80;;;;;;;3.49;79.32;98281.30;220364;1275;24822;-71
2022/04/21 01:11:58;;;;;;;60.90;38.20;;;;;;;3.46;79.34;98281.11;220075;1274;22664;-71
2022/04/21 01:17:00;;;;;;;65.50;41.70;;;;;;;3.43;79.33;98281.05;220266;1277;25294;-71
2022/04/21 01:22:03;;;;;;;67.30;41.40;;;;;;;3.43;79.63;98285.11;220277;1274;22560;-72
2022/04/21 01:27:06;;;;;;;55.80;36.50;;;;;;;3.43;79.63;98276.06;220158;1277;22584;-72
2022/04/21 01:32:18;;;;;;;53.30;34.30;;;;;;;3.39;79.63;98278.16;220165;1276;22557;-72
2022/04/21 01:42:45;;;;;;;56.10;36.00;;;;;;;3.34;80.00;98271.83;220332;1276;22544;-72
2022/04/21 01:47:48;;;;;;;58.60;37.20;;;;;;;3.31;80.06;98277.41;220210;1275;22585;-72
2022/04/21 01:52:52;;;;;;;53.00;34.80;;;;;;;3.28;80.00;98272.46;220019;1275;22546;-72
2022/04/21 01:57:55;;;;;;;58.10;37.70;;;;;;;3.22;80.09;98271.39;220362;1275;22728;-71
2022/04/21 02:03:00;;;;;;;56.10;35.20;;;;;;;3.16;80.33;98273.05;220219;1274;22667;-71
2022/04/21 02:08:06;;;;;;;63.60;38.50;;;;;;;3.13;80.57;98265.55;220320;1274;22693;-71
2022/04/21 02:13:08;;;;;;;68.80;41.80;;;;;;;3.13;80.74;98264.29;220131;1276;22616;-71
2022/04/21 02:18:11;;;;;;;70.10;42.30;;;;;;;3.13;80.87;98267.77;220182;1276;25372;-73
2022/04/21 02:23:13;;;;;;;74.10;42.10;;;;;;;3.15;81.09;98259.65;220171;1277;22721;-72
2022/04/21 02:28:18;;;;;;;70.20;42.50;;;;;;;3.15;81.05;98259.48;220176;1275;22616;-71
2022/04/21 02:33:21;;;;;;;79.50;45.50;;;;;;;3.11;81.02;98253.79;220480;1276;22635;-71
2022/04/21 02:38:23;;;;;;;85.30;49.00;;;;;;;3.06;81.15;98261.05;220211;1274;23995;-71
2022/04/21 02:43:26;;;;;;;81.40;46.80;;;;;;;3.02;81.27;98255.45;220257;1277;24313;-72
2022/04/21 02:48:34;;;;;;;78.10;47.90;;;;;;;2.98;81.28;98260.88;220298;1276;22500;-71
2022/04/21 02:59:00;;;;;;;79.20;48.20;;;;;;;2.77;81.35;98256.02;220183;1276;24225;-71
2022/04/21 03:04:03;;;;;;;84.70;48.60;;;;;;;2.67;81.38;98265.61;220478;1275;25062;-71
2022/04/21 03:09:05;;;;;;;104.80;57.90;;;;;;;2.60;81.50;98265.64;220305;1276;22539;-71
2022/04/21 03:14:08;;;;;;;96.80;55.00;;;;;;;2.48;81.42;98251.92;220328;1276;24913;-70
2022/04/21 03:19:12;;;;;;;90.90;52.90;;;;;;;2.35;81.54;98247.49;220509;1275;23059;-71
2022/04/21 03:24:21;;;;;;;91.10;53.50;;;;;;;2.23;81.77;98243.36;220255;1276;25373;-71
2022/04/21 03:29:23;;;;;;;99.90;58.90;;;;;;;2.14;81.94;98245.09;220295;1275;24231;-71
2022/04/21 03:34:26;;;;;;;94.10;54.60;;;;;;;2.05;82.07;98246.14;220229;1276;22562;-72
2022/04/21 03:39:28;;;;;;;87.20;52.00;;;;;;;2.00;82.12;98242.38;220181;1275;22557;-72
2022/04/21 03:44:32;;;;;;;92.00;53.20;;;;;;;1.95;82.20;98242.27;220168;1274;26315;-72
2022/04/21 03:49:35;;;;;;;91.20;52.50;;;;;;;1.91;82.06;98247.21;220489;1276;22702;-71
2022/04/21 03:54:40;;;;;;;91.20;52.70;;;;;;;1.88;82.33;98245.67;220271;1277;22793;-72
2022/04/21 03:59:45;;;;;;;101.40;58.00;;;;;;;1.88;82.42;98236.68;220398;1274;22548;-70
2022/04/21 04:05:08;;;;;;;93.50;52.50;;;;;;;1.87;82.27;98235.72;220381;1276;25235;-72
2022/04/21 04:15:33;;;;;;;94.90;54.90;;;;;;;1.88;82.94;98241.49;220347;1274;22807;-71
2022/04/21 04:20:35;;;;;;;104.80;58.30;;;;;;;1.88;83.00;98245.88;220210;1277;24319;-72
2022/04/21 04:25:38;;;;;;;102.00;58.10;;;;;;;1.87;82.91;98249.89;220197;1274;26463;-72
2022/04/21 04:30:49;;;;;;;108.30;61.70;;;;;;;1.87;83.18;98252.63;220242;1274;26455;-71
2022/04/21 04:35:52;;;;;;;104.60;61.90;;;;;;;1.88;83.03;98256.29;220487;1274;25257;-71
2022/04/21 04:40:55;;;;;;;106.90;61.60;;;;;;;1.89;82.62;98259.09;220177;1274;22569;-72
2022/04/21 04:51:21;;;;;;;111.20;65.40;;;;;;;2.04;83.18;98273.67;220147;1276;24276;-71
2022/04/21 04:56:24;;;;;;;99.40;61.10;;;;;;;2.21;83.40;98262.57;220379;1276;26363;-72
2022/04/21 05:01:32;;;;;;;100.80;59.00;;;;;;;2.41;83.69;98265.95;220471;1274;22537;-70
2022/04/21 05:06:40;;;;;;;95.60;55.30;;;;;;;2.65;83.74;98274.41;220812;1274;25254;-71
2022/04/21 05:11:48;;;;;;;91.10;55.80;;;;;;;2.83;83.31;98270.90;220310;1277;26240;-71
2022/04/21 05:16:51;;;;;;;85.30;52.00;;;;;;;2.99;83.19;98267.70;220166;1277;25310;-72
2022/04/21 05:22:02;;;;;;;93.40;53.60;;;;;;;3.17;83.05;98261.77;220734;1274;22585;-72
2022/04/21 05:27:06;;;;;;;93.20;54.80;;;;;;;3.37;83.03;98260.08;220138;1276;22643;-72
2022/04/21 05:32:37;;;;;;;93.90;58.40;;;;;;;3.58;82.76;98258.16;220266;1276;23952;-71
2022/04/21 05:37:40;;;;;;;103.70;62.20;;;;;;;3.71;82.34;98254.21;220230;1274;25906;-72
2022/04/21 05:42:49;;;;;;;96.60;58.50;;;;;;;3.88;82.30;98258.71;220354;1276;23340;-72
2022/04/21 05:47:53;;;;;;;85.30;52.80;;;;;;;4.07;82.03;98265.54;220572;1277;22525;-72
2022/04/21 05:53:01;;;;;;;102.10;59.00;;;;;;;4.19;81.70;98266.97;220944;1275;23253;-72
2022/04/21 05:58:04;;;;;;;87.60;53.80;;;;;;;4.36;81.79;98263.65;220671;1276;22580;-72
2022/04/21 06:03:07;;;;;;;85.10;53.20;;;;;;;4.61;81.49;98261.06;221006;1275;22600;-72
2022/04/21 06:08:10;;;;;;;84.00;51.40;;;;;;;4.94;81.47;98269.20;220876;1276;22581;-72
2022/04/21 06:13:15;;;;;;;98.40;50.80;;;;;;;5.29;81.41;98279.06;221300;1274;22732;-72
2022/04/21 06:18:19;;;;;;;74.70;46.40;;;;;;;5.66;80.84;98278.92;222310;1274;23396;-71
2022/04/21 06:23:22;;;;;;;68.90;44.60;;;;;;;5.82;79.65;98276.88;222492;1274;24225;-71
2022/04/21 06:28:25;;;;;;;71.80;44.80;;;;;;;5.93;78.84;98280.00;220608;1274;22596;-70
2022/04/21 06:33:31;;;;;;;61.80;41.50;;;;;;;6.12;78.84;98280.77;220462;1274;24266;-70
2022/04/21 06:38:34;;;;;;;56.00;37.70;;;;;;;6.28;78.28;98278.16;220912;1276;24238;-71
2022/04/21 06:49:01;;;;;;;47.80;32.90;;;;;;;6.67;77.65;98283.58;220724;1275;25649;-71
2022/04/21 06:54:03;;;;;;;33.90;24.50;;;;;;;6.94;77.62;98287.84;220861;1274;24218;-72
2022/04/21 06:59:06;;;;;;;35.00;25.10;;;;;;;7.17;77.01;98293.49;220708;1275;22588;-71
2022/04/21 07:04:09;;;;;;;31.70;24.70;;;;;;;7.44;76.88;98285.77;220675;1274;22812;-71
2022/04/21 07:09:15;;;;;;;29.30;21.70;;;;;;;7.75;76.48;98276.16;220737;1275;22584;-73
2022/04/21 07:14:18;;;;;;;26.70;20.00;;;;;;;8.03;75.74;98281.97;220580;1274;22531;-72
2022/04/21 07:19:22;;;;;;;26.30;20.00;;;;;;;8.32;74.94;98281.11;220617;1274;22797;-72
2022/04/21 07:24:24;;;;;;;24.60;19.60;;;;;;;8.52;73.88;98279.30;220551;1274;22563;-72
2022/04/21 07:29:27;;;;;;;24.40;19.40;;;;;;;8.84;73.93;98286.63;220672;1276;25474;-71
2022/04/21 07:34:29;;;;;;;22.70;18.60;;;;;;;9.40;73.64;98284.28;220693;1275;22582;-71
2022/04/21 07:39:33;;;;;;;24.50;19.00;;;;;;;9.99;72.12;98285.56;220653;1274;24353;-71
2022/04/21 07:44:37;;;;;;;24.70;18.10;;;;;;;10.19;69.70;98285.15;220451;1278;25538;-72
2022/04/21 07:49:46;;;;;;;20.40;17.00;;;;;;;10.60;70.09;98288.55;220910;1275;24229;-72
2022/04/21 07:54:48;;;;;;;21.20;16.90;;;;;;;11.05;68.54;98295.00;220671;1277;25435;-72
2022/04/21 07:59:51;;;;;;;29.10;22.90;;;;;;;11.28;66.33;98292.03;220603;1273;24225;-72
2022/04/21 08:04:53;;;;;;;21.00;16.90;;;;;;;11.42;65.80;98296.35;220501;1275;26288;-72
2022/04/21 08:09:55;;;;;;;18.20;16.20;;;;;;;11.67;65.31;98297.03;220633;1276;22563;-72
2022/04/21 08:14:58;;;;;;;18.90;15.70;;;;;;;11.88;64.30;98298.55;220446;1276;22632;-72
2022/04/21 08:20:01;;;;;;;18.70;15.90;;;;;;;12.23;64.65;98292.96;220654;1274;22702;-72
2022/04/21 08:36:34;;;;;;;20.10;16.60;;;;;;;13.01;61.37;98298.15;221136;1275;22556;-72
2022/04/21 08:41:47;;;;;;;20.90;17.90;;;;;;;13.07;59.32;98295.15;221005;1277;22541;-73
2022/04/21 08:46:50;;;;;;;20.70;16.70;;;;;;;13.02;59.30;98293.38;220847;1277;22571;-71
2022/04/21 08:51:56;;;;;;;20.90;16.80;;;;;;;13.17;59.04;98297.39;220853;1277;22653;-71
2022/04/21 08:56:59;;;;;;;19.50;16.70;;;;;;;13.36;58.67;98297.25;220946;1277;22564;-71
2022/04/21 09:02:02;;;;;;;17.10;15.20;;;;;;;13.39;57.39;98297.54;221024;1275;22771;-71
2022/04/21 09:07:19;;;;;;;15.30;13.70;;;;;;;13.49;57.56;98291.73;221087;1275;22625;-71
2022/04/21 09:12:22;;;;;;;18.30;15.00;;;;;;;13.41;54.97;98289.10;221097;1277;22641;-72
2022/04/21 09:17:28;;;;;;;14.80;13.20;;;;;;;13.10;54.86;98291.41;220984;1276;22536;-72
2022/04/21 09:22:34;;;;;;;14.50;12.60;;;;;;;13.23;55.33;98288.42;221181;1274;22560;-72
2022/04/21 09:27:39;;;;;;;18.70;16.00;;;;;;;13.40;55.02;98288.20;221111;1275;23100;-72
2022/04/21 09:32:55;;;;;;;17.00;14.30;;;;;;;13.53;55.07;98284.92;222347;1274;24236;-72
2022/04/21 09:37:58;;;;;;;14.60;13.10;;;;;;;13.72;54.59;98282.85;221184;1275;22735;-72
2022/04/21 09:43:03;;;;;;;13.00;11.50;;;;;;;14.13;54.69;98281.12;221137;1274;25340;-72
2022/04/21 09:48:06;;;;;;;16.80;14.60;;;;;;;14.52;52.49;98279.97;221174;1275;22556;-71
2022/04/21 09:53:12;;;;;;;14.30;12.40;;;;;;;14.45;52.36;98276.54;221280;1275;25312;-72
2022/04/21 09:58:18;;;;;;;12.80;10.90;;;;;;;14.40;51.71;98270.65;221061;1275;22560;-72
2022/04/21 10:03:33;;;;;;;15.30;13.20;;;;;;;14.41;51.53;98269.60;221089;1274;25308;-72
2022/04/21 10:08:40;;;;;;;16.90;13.50;;;;;;;14.41;51.41;98269.45;220963;1275;22557;-72
2022/04/21 10:13:45;;;;;;;15.30;11.90;;;;;;;14.49;51.25;98266.54;220899;1278;26111;-72
2022/04/21 10:18:59;;;;;;;15.60;13.40;;;;;;;14.54;50.97;98268.27;220984;1274;24304;-73
2022/04/21 10:24:02;;;;;;;18.30;14.00;;;;;;;14.41;50.42;98267.92;222487;1274;22661;-71
2022/04/21 10:29:26;;;;;;;16.00;12.10;;;;;;;14.33;50.70;98267.99;221645;1274;22541;-72
2022/04/21 10:34:45;;;;;;;12.90;11.50;;;;;;;14.44;50.49;98269.42;221288;1274;25413;-72
2022/04/21 10:40:14;;;;;;;15.60;12.70;;;;;;;14.60;50.11;98272.95;220891;1274;24227;-72
2022/04/21 10:45:23;;;;;;;14.80;11.70;;;;;;;14.76;49.61;98271.89;221933;1275;23437;-73
2022/04/21 10:50:33;;;;;;;14.50;12.90;;;;;;;14.96;49.66;98270.92;222005;1274;22550;-72
2022/04/21 11:01:17;;;;;;;12.50;10.20;;;;;;;15.02;48.26;98265.13;221056;1277;22553;-71
2022/04/21 11:06:38;;;;;;;14.30;11.20;;;;;;;15.02;48.42;98259.98;221029;1274;22707;-69
2022/04/21 11:11:47;;;;;;;11.90;10.30;;;;;;;15.14;48.32;98259.70;221168;1275;22607;-70
2022/04/21 11:16:49;;;;;;;12.00;10.70;;;;;;;15.01;47.42;98250.70;221258;1274;22668;-71
2022/04/21 11:21:52;;;;;;;14.00;10.40;;;;;;;15.00;48.26;98253.48;221005;1274;22779;-72
2022/04/21 11:26:59;;;;;;;8.50;7.50;;;;;;;15.12;47.77;98253.55;221123;1274;22536;-71
2022/04/21 11:32:02;;;;;;;6.30;5.70;;;;;;;15.31;47.51;98248.17;223223;1277;26710;-71
2022/04/21 11:37:06;;;;;;;6.60;5.90;;;;;;;15.57;46.79;98247.29;221068;1274;23282;-72
2022/04/21 11:42:09;;;;;;;7.40;5.80;;;;;;;15.93;47.07;98239.93;221061;1275;24325;-72
2022/04/21 11:53:49;;;;;;;6.20;5.60;;;;;;;15.72;43.81;98239.53;221015;1274;22551;-71
2022/04/21 11:58:52;;;;;;;6.80;6.00;;;;;;;15.11;43.89;98246.16;221144;1275;25380;-72
2022/04/21 12:09:20;;;;;;;5.50;4.90;;;;;;;15.37;45.62;98236.83;220604;1274;22704;-71
2022/04/21 12:14:24;;;;;;;5.30;4.80;;;;;;;15.73;45.31;98231.92;220827;1276;22562;-72
2022/04/21 12:19:38;;;;;;;6.00;4.90;;;;;;;15.92;44.66;98230.70;220698;1274;22585;-71
2022/04/21 12:24:44;;;;;;;7.40;5.80;;;;;;;15.89;44.44;98226.68;220700;1274;26125;-72
2022/04/21 12:29:54;;;;;;;6.50;5.90;;;;;;;15.84;44.14;98225.67;220487;1274;23361;-72
2022/04/21 12:35:06;;;;;;;7.40;5.80;;;;;;;15.51;43.79;98222.41;220181;1276;22547;-71
2022/04/21 12:40:16;;;;;;;7.80;6.40;;;;;;;15.52;44.65;98221.35;220767;1274;25238;-72
2022/04/21 12:45:26;;;;;;;9.90;8.90;;;;;;;15.55;44.96;98222.33;220803;1275;22547;-72
2022/04/21 12:50:30;;;;;;;10.00;8.70;;;;;;;15.29;44.57;98226.20;220623;1274;22563;-71
2022/04/21 12:55:34;;;;;;;8.80;7.70;;;;;;;14.99;45.02;98223.61;221021;1273;24271;-71
2022/04/21 13:00:50;;;;;;;8.80;7.90;;;;;;;14.87;45.35;98220.66;221111;1273;24293;-71
2022/04/21 13:05:55;;;;;;;9.20;8.20;;;;;;;14.84;45.39;98223.96;221307;1274;22615;-72
2022/04/21 13:10:58;;;;;;;12.70;9.30;;;;;;;14.88;45.73;98217.30;221095;1273;24306;-72
2022/04/21 13:16:07;;;;;;;15.80;8.70;;;;;;;15.00;45.67;98219.89;220846;1273;24434;-72
2022/04/21 13:26:34;;;;;;;10.00;8.10;;;;;;;15.34;45.39;98215.45;220697;1273;22559;-72
2022/04/21 13:37:03;;;;;;;8.60;7.80;;;;;;;15.22;44.96;98224.52;221081;1273;22676;-73
2022/04/21 13:42:18;;;;;;;8.60;7.00;;;;;;;15.23;45.02;98224.27;220702;1274;25588;-71
2022/04/21 13:47:22;;;;;;;8.60;7.70;;;;;;;15.21;44.71;98227.13;220779;1273;22691;-72
2022/04/21 13:52:27;;;;;;;9.70;8.10;;;;;;;15.33;44.97;98226.73;220804;1273;22697;-71
2022/04/21 13:57:30;;;;;;;8.70;7.80;;;;;;;15.48;44.95;98226.02;220646;1273;23261;-71
2022/04/21 14:02:33;;;;;;;8.90;8.00;;;;;;;15.48;44.62;98223.08;221035;1273;22580;-71
2022/04/21 14:07:39;;;;;;;9.90;8.20;;;;;;;15.50;44.68;98228.48;220697;1273;24314;-70
2022/04/21 14:12:42;;;;;;;10.50;8.50;;;;;;;15.50;44.62;98229.94;220714;1273;25401;-72
2022/04/21 14:17:45;;;;;;;10.00;8.00;;;;;;;15.42;44.37;98227.73;220771;1273;22593;-72
2022/04/21 14:22:48;;;;;;;9.20;7.50;;;;;;;15.24;44.20;98228.75;220697;1273;23002;-72
2022/04/21 14:27:50;;;;;;;9.60;8.20;;;;;;;15.12;44.50;98227.63;220684;1273;22593;-72
2022/04/21 14:32:54;;;;;;;9.10;8.20;;;;;;;15.03;44.55;98227.01;220667;1273;22580;-72
2022/04/21 14:48:46;;;;;;;9.30;8.30;;;;;;;14.63;45.00;98223.77;220774;1273;22687;-72
2022/04/21 14:53:48;;;;;;;10.10;9.00;;;;;;;14.50;44.94;98227.23;220707;1273;22610;-72
2022/04/21 14:58:51;;;;;;;9.60;8.40;;;;;;;14.37;45.16;98222.27;220822;1273;22540;-71
2022/04/21 15:03:54;;;;;;;10.60;8.70;;;;;;;14.24;45.15;98225.14;220954;1274;22567;-71
2022/04/21 15:08:57;;;;;;;11.30;9.30;;;;;;;14.04;45.40;98229.23;220850;1273;22802;-71
2022/04/21 15:14:00;;;;;;;9.50;8.40;;;;;;;13.85;45.39;98229.23;219363;1273;22548;-71
2022/04/21 15:19:11;;;;;;;11.40;9.20;;;;;;;13.63;45.73;98226.27;220585;1273;22557;-72
2022/04/21 15:24:19;;;;;;;11.60;9.70;;;;;;;13.42;46.19;98223.66;220478;1273;22553;-73
2022/04/21 15:29:21;;;;;;;12.90;9.80;;;;;;;13.24;46.36;98218.31;219428;1273;22538;-72
2022/04/21 15:34:24;;;;;;;10.90;9.30;;;;;;;13.02;46.75;98220.17;220448;1273;24149;-71
2022/04/21 15:39:26;;;;;;;13.00;10.60;;;;;;;12.89;47.21;98223.35;220510;1273;24307;-70
2022/04/21 15:44:30;;;;;;;12.00;10.20;;;;;;;12.69;47.32;98220.34;220585;1273;25319;-72
2022/04/21 15:49:34;;;;;;;11.10;9.90;;;;;;;12.52;47.92;98224.00;220448;1273;24262;-72
2022/04/21 16:00:00;;;;;;;10.30;9.00;;;;;;;12.20;48.76;98229.56;220408;1273;22698;-72
2022/04/21 16:05:26;;;;;;;12.70;10.30;;;;;;;12.07;49.06;98228.48;220740;1273;22571;-71
2022/04/21 16:10:33;;;;;;;12.20;9.70;;;;;;;11.93;49.45;98235.95;220752;1273;22563;-71
2022/04/21 16:15:37;;;;;;;15.00;10.70;;;;;;;11.77;49.86;98234.18;220666;1273;24216;-72
2022/04/21 16:20:40;;;;;;;12.50;9.70;;;;;;;11.66;50.34;98234.07;220897;1273;24253;-72
2022/04/21 16:25:47;;;;;;;15.00;10.90;;;;;;;11.53;50.86;98229.20;220441;1274;22545;-72
2022/04/21 16:30:52;;;;;;;13.30;10.60;;;;;;;11.42;51.26;98225.80;220629;1273;23121;-72
2022/04/21 16:35:56;;;;;;;12.40;10.30;;;;;;;11.32;51.61;98225.46;220835;1273;23495;-72
2022/04/21 16:40:58;;;;;;;13.80;11.50;;;;;;;11.25;51.95;98229.14;220679;1273;22655;-71
2022/04/21 16:46:02;;;;;;;14.20;11.50;;;;;;;11.19;52.08;98231.98;220642;1273;22525;-72
2022/04/21 16:51:05;;;;;;;15.10;11.60;;;;;;;11.11;52.22;98234.94;220610;1273;24239;-72
2022/04/21 16:56:12;;;;;;;16.30;12.30;;;;;;;11.01;52.54;98232.65;220747;1273;24238;-71
2022/04/21 17:06:39;;;;;;;17.70;13.40;;;;;;;10.85;53.39;98237.80;220510;1273;22555;-72
2022/04/21 17:11:42;;;;;;;15.80;12.50;;;;;;;10.75;53.53;98237.37;220407;1274;22563;-71
2022/04/21 17:16:46;;;;;;;19.50;11.10;;;;;;;10.65;53.97;98242.09;220316;1273;22657;-72
2022/04/21 17:21:53;;;;;;;12.80;9.80;;;;;;;10.53;54.26;98239.61;220598;1273;22586;-71
2022/04/21 17:26:56;;;;;;;12.30;8.90;;;;;;;10.41;54.26;98246.67;220594;1273;22567;-71
2022/04/21 17:32:01;;;;;;;14.30;9.90;;;;;;;10.30;54.52;98248.52;220639;1273;22549;-71
2022/04/21 17:37:05;;;;;;;14.00;10.30;;;;;;;10.19;54.89;98248.25;220494;1273;22688;-72
2022/04/21 17:42:12;;;;;;;15.20;10.60;;;;;;;10.09;55.31;98255.08;220655;1273;25327;-72
2022/04/21 17:47:15;;;;;;;16.10;12.20;;;;;;;10.00;55.71;98250.34;220763;1273;22558;-70
2022/04/21 17:52:19;;;;;;;17.20;12.60;;;;;;;9.91;55.98;98249.98;220590;1273;24207;-71
2022/04/21 17:57:22;;;;;;;16.20;12.30;;;;;;;9.80;56.41;98248.52;221072;1273;22612;-72
2022/04/21 18:02:26;;;;;;;15.40;12.00;;;;;;;9.71;56.92;98252.20;220428;1273;24160;-72
2022/04/21 18:07:36;;;;;;;16.80;13.10;;;;;;;9.62;57.19;98261.84;221098;1273;22630;-72
2022/04/21 18:12:39;;;;;;;20.10;13.50;;;;;;;9.55;57.61;98261.37;220462;1273;22560;-71
2022/04/21 18:17:42;;;;;;;24.80;16.10;;;;;;;9.49;57.88;98262.27;220932;1273;22544;-71
2022/04/21 18:22:45;;;;;;;23.80;15.70;;;;;;;9.42;58.21;98265.48;220776;1273;22717;-71
2022/04/21 18:27:47;;;;;;;23.30;16.30;;;;;;;9.37;58.59;98264.17;220653;1273;25215;-71
2022/04/21 18:32:52;;;;;;;20.80;15.50;;;;;;;9.33;59.07;98268.37;220343;1273;24113;-71
2022/04/21 18:37:54;;;;;;;24.30;15.90;;;;;;;9.30;59.34;98268.46;220437;1273;22558;-72
2022/04/21 18:42:59;;;;;;;23.70;16.10;;;;;;;9.28;59.75;98270.52;220454;1273;22668;-71
2022/04/21 18:48:05;;;;;;;20.90;15.80;;;;;;;9.25;60.10;98272.97;220575;1273;24328;-72
2022/04/21 18:53:10;;;;;;;19.10;13.80;;;;;;;9.24;60.48;98269.52;220725;1273;23854;-72
2022/04/21 18:58:25;;;;;;;21.50;14.20;;;;;;;9.23;60.83;98268.24;220534;1273;24152;-71
2022/04/21 19:03:29;;;;;;;17.90;13.60;;;;;;;9.21;60.92;98261.66;220566;1273;24913;-70
2022/04/21 19:14:14;;;;;;;18.30;13.50;;;;;;;9.19;61.64;98266.45;220596;1273;22477;-71
2022/04/21 19:19:20;;;;;;;20.40;13.40;;;;;;;9.15;61.97;98260.61;220660;1273;22585;-71
2022/04/21 19:24:25;;;;;;;18.40;14.70;;;;;;;9.14;62.23;98254.94;220561;1273;22564;-72
2022/04/21 19:29:31;;;;;;;22.10;15.20;;;;;;;9.12;62.74;98252.33;220452;1273;24260;-72
2022/04/21 19:34:39;;;;;;;24.30;16.10;;;;;;;9.10;63.16;98249.48;220654;1273;22575;-71
2022/04/21 19:39:42;;;;;;;28.20;18.60;;;;;;;9.09;63.43;98248.41;220685;1273;22673;-71
2022/04/21 19:44:45;;;;;;;26.20;18.40;;;;;;;9.08;63.78;98243.69;220624;1273;22768;-72
2022/04/21 19:49:48;;;;;;;25.90;18.10;;;;;;;9.07;64.14;98243.80;220670;1273;22557;-72
2022/04/21 19:54:58;;;;;;;23.20;16.20;;;;;;;9.07;64.45;98242.09;220558;1273;22560;-72
2022/04/21 20:00:18;;;;;;;24.80;17.60;;;;;;;9.05;64.95;98241.69;220560;1273;25408;-71
2022/04/21 20:11:06;;;;;;;30.60;20.50;;;;;;;9.04;65.51;98241.40;220485;1273;22732;-72
2022/04/21 20:16:11;;;;;;;26.50;19.00;;;;;;;9.02;65.80;98234.64;220553;1273;22700;-72
2022/04/21 20:26:37;;;;;;;30.20;20.60;;;;;;;8.98;66.19;98234.95;220433;1273;23175;-72
2022/04/21 20:31:42;;;;;;;30.60;20.40;;;;;;;8.95;66.36;98234.48;220597;1273;22620;-72
2022/04/21 20:36:48;;;;;;;32.80;21.80;;;;;;;8.92;66.75;98232.98;220645;1273;22773;-71
2022/04/21 20:41:52;;;;;;;36.60;23.50;;;;;;;8.87;67.08;98235.89;220806;1273;23025;-71
2022/04/21 20:47:01;;;;;;;35.70;23.20;;;;;;;8.82;67.26;98235.68;220717;1273;22930;-72
2022/04/21 20:52:07;;;;;;;31.20;22.10;;;;;;;8.79;67.55;98236.75;220591;1273;22528;-72
2022/04/21 20:57:12;;;;;;;32.30;21.50;;;;;;;8.76;68.04;98240.70;220476;1273;25151;-72
2022/04/21 21:02:16;;;;;;;29.20;20.20;;;;;;;8.72;68.26;98239.98;220462;1273;22598;-71
2022/04/21 21:07:19;;;;;;;27.20;20.20;;;;;;;8.70;68.40;98240.48;220343;1273;25436;-71
2022/04/21 21:12:22;;;;;;;30.50;20.10;;;;;;;8.67;68.48;98232.70;220624;1273;22637;-71
2022/04/21 21:17:25;;;;;;;29.00;20.50;;;;;;;8.69;68.68;98238.23;220404;1274;24236;-72
2022/04/21 21:22:28;;;;;;;29.00;21.20;;;;;;;8.69;68.92;98235.66;220616;1273;24233;-71
2022/04/21 21:27:30;;;;;;;31.50;21.30;;;;;;;8.67;69.05;98233.64;220488;1273;22593;-71
2022/04/21 21:32:45;;;;;;;31.80;21.70;;;;;;;8.66;69.19;98235.80;220630;1273;22553;-70
2022/04/21 21:37:57;;;;;;;33.20;22.40;;;;;;;8.65;69.36;98240.79;221026;1274;25306;-71
2022/04/21 21:43:00;;;;;;;32.10;22.10;;;;;;;8.64;69.50;98239.15;219430;1273;22677;-71
2022/04/21 21:48:03;;;;;;;30.90;22.60;;;;;;;8.63;69.66;98238.63;220820;1273;24231;-71
2022/04/21 21:53:06;;;;;;;32.90;22.10;;;;;;;8.62;69.73;98234.73;220753;1273;25469;-70
2022/04/21 21:58:09;;;;;;;33.50;22.40;;;;;;;8.61;69.85;98235.08;219388;1274;22590;-71
2022/04/21 22:03:12;;;;;;;33.20;22.80;;;;;;;8.60;69.98;98236.48;220506;1273;22799;-72
2022/04/21 22:08:15;;;;;;;32.80;22.10;;;;;;;8.60;70.05;98239.89;220712;1273;22547;-71
2022/04/21 22:13:17;;;;;;;32.90;22.80;;;;;;;8.61;69.96;98233.32;220538;1273;22554;-71
2022/04/21 22:18:21;;;;;;;33.90;22.50;;;;;;;8.60;70.17;98221.14;220648;1273;22720;-71
2022/04/21 22:23:27;;;;;;;34.50;23.30;;;;;;;8.59;70.39;98224.90;220956;1273;25238;-71
2022/04/21 22:28:30;;;;;;;42.50;28.40;;;;;;;8.57;70.61;98221.95;220528;1273;28071;-72
2022/04/21 22:33:32;;;;;;;51.10;32.80;;;;;;;8.52;70.63;98218.91;220604;1273;25254;-71
2022/04/21 22:38:37;;;;;;;51.90;32.70;;;;;;;8.47;70.93;98214.94;220327;1273;22693;-72
2022/04/21 22:43:50;;;;;;;46.90;31.50;;;;;;;8.44;71.11;98212.65;220288;1276;22581;-71
2022/04/21 22:49:09;;;;;;;50.90;31.40;;;;;;;8.41;71.21;98210.05;220755;1273;22544;-72
2022/04/21 22:54:14;;;;;;;52.60;32.80;;;;;;;8.39;71.35;98204.64;220569;1273;22544;-72
2022/04/21 22:59:17;;;;;;;53.90;34.10;;;;;;;8.39;71.48;98197.11;220455;1273;22576;-72
2022/04/21 23:04:20;;;;;;;57.90;35.50;;;;;;;8.40;71.65;98184.87;220622;1273;22540;-72
2022/04/21 23:14:52;;;;;;;58.70;34.80;;;;;;;8.44;71.73;98182.73;218793;1276;22568;-70
2022/04/21 23:19:54;;;;;;;60.40;36.20;;;;;;;8.45;71.70;98179.97;218692;1276;22735;-72
2022/04/21 23:25:04;;;;;;;62.30;38.20;;;;;;;8.47;71.72;98167.79;220496;1274;22538;-72
2022/04/21 23:30:13;;;;;;;53.90;35.20;;;;;;;8.46;71.74;98166.08;220844;1274;22703;-72
2022/04/21 23:35:16;;;;;;;54.20;34.00;;;;;;;8.47;71.99;98161.02;220709;1273;22936;-71
2022/04/21 23:40:19;;;;;;;48.80;32.10;;;;;;;8.45;72.00;98159.10;220612;1273;22590;-71
2022/04/21 23:45:23;;;;;;;49.90;31.50;;;;;;;8.45;72.07;98157.75;220554;1273;22762;-72
2022/04/21 23:50:26;;;;;;;46.10;30.90;;;;;;;8.45;72.02;98144.69;221085;1273;22572;-72
2022/04/21 23:55:28;;;;;;;53.80;33.50;;;;;;;8.46;72.09;98134.97;220378;1274;23978;-72
